Laida — EAVE — position and weather

sailwx.info

Track history (hours):
 
Tides and Currents Weather Stations Pressure Air Temp Water Temp Dewpoint Dewpoint Depression Visibility Wind Speed Wind Dir Waves Ship Positions

Laida

Last reported at 2017-Sep-19 23:46 UTC. Time now 2017-Sep-22 09:56 UTC.
Position N 53°33' W 003°50'.

Length 100 m; draft 5 m.

Type: Cargo ship. MMSI: 224509000.

Date/timePositionNaut miles runAvg speedWind from/ knotsBaromVisibWave heightAir tempDewpointWater temp
2017-Sep-19 23:46N 53°33' W 003°50'312.3
2017-Sep-19 23:30N 53°33' W 003°44'612.0
2017-Sep-19 23:00N 53°33' W 003°34'611.6
2017-Sep-19 22:30N 53°33' W 003°24'511.1
2017-Sep-19 22:00N 53°32' W 003°15'510.3
2017-Sep-19 21:30N 53°31' W 003°07'510.1
2017-Sep-19 21:00N 53°27' W 003°02'4 8.0
2017-Sep-19 20:30N 53°23' W 002°60'4 7.8
2017-Sep-19 20:00N 53°20' W 002°57'1 1.1
2017-Sep-19 19:30N 53°19' W 002°57'0 0.3
2017-Sep-19 19:00N 53°19' W 002°57'2 3.7
2017-Sep-19 18:30N 53°18' W 002°54'2 4.4
2017-Sep-19 18:00N 53°17' W 002°51'3 6.0
2017-Sep-19 17:30N 53°18' W 002°46'2 3.4
2017-Sep-19 16:55N 53°20' W 002°45'0 0.0
2017-Sep-19 16:28N 53°20' W 002°45'0 0.0
2017-Sep-19 15:55N 53°20' W 002°45'0 0.0
2017-Sep-19 15:28N 53°20' W 002°45'0 0.0
2017-Sep-19 14:58N 53°20' W 002°45'0 0.0
2017-Sep-19 14:28N 53°20' W 002°45'0 0.0
2017-Sep-19 13:58N 53°20' W 002°45'0 0.0
2017-Sep-19 13:28N 53°20' W 002°45'0 0.0
2017-Sep-19 12:46N 53°20' W 002°45'0 0.0
2017-Sep-19 12:22N 53°20' W 002°45'0 0.7
2017-Sep-19 11:55N 53°20' W 002°45'0 0.1
2017-Sep-19 11:25N 53°20' W 002°45'0 0.0
2017-Sep-19 10:58N 53°20' W 002°45'0 0.0
2017-Sep-19 10:25N 53°20' W 002°45'0 0.0
2017-Sep-19 09:58N 53°20' W 002°45'0 0.0
2017-Sep-19 09:28N 53°20' W 002°45'0 0.0
2017-Sep-19 08:58N 53°20' W 002°45'0 0.0
2017-Sep-19 08:22N 53°20' W 002°45'0 0.0
2017-Sep-19 07:55N 53°20' W 002°45'0 0.0
2017-Sep-19 07:28N 53°20' W 002°45'0 0.0
2017-Sep-19 06:55N 53°20' W 002°45'0 0.0
2017-Sep-19 06:28N 53°20' W 002°45'0 0.0
2017-Sep-19 05:58N 53°20' W 002°45'0 0.0
2017-Sep-19 05:28N 53°20' W 002°45'0 0.0
2017-Sep-19 04:58N 53°20' W 002°45'0 0.0
2017-Sep-19 04:25N 53°20' W 002°45'0 0.0
2017-Sep-19 03:58N 53°20' W 002°45'0 0.0
2017-Sep-19 03:25N 53°20' W 002°45'0 0.0
2017-Sep-19 02:58N 53°20' W 002°45'0 0.0
2017-Sep-19 02:28N 53°20' W 002°45'0 0.0
2017-Sep-19 01:58N 53°20' W 002°45'0 0.0
2017-Sep-19 01:22N 53°20' W 002°45'0 0.0
2017-Sep-19 00:58N 53°20' W 002°45'0 0.0
2017-Sep-19 00:28N 53°20' W 002°45'0 0.0
2017-Sep-18 23:58N 53°20' W 002°45'0 0.0
2017-Sep-18 23:25N 53°20' W 002°45'0 0.0
2017-Sep-18 22:58N 53°20' W 002°45'0 0.0
2017-Sep-18 22:25N 53°20' W 002°45'0 0.0
2017-Sep-18 21:58N 53°20' W 002°45'0 0.0
2017-Sep-18 21:28N 53°20' W 002°45'0 0.0
2017-Sep-18 20:52N 53°20' W 002°45'0 0.0
2017-Sep-18 20:28N 53°20' W 002°45'0 0.0
2017-Sep-18 19:58N 53°20' W 002°45'0 0.0
2017-Sep-18 19:28N 53°20' W 002°45'0 0.0
2017-Sep-18 18:55N 53°20' W 002°45'0 0.0
2017-Sep-18 18:28N 53°20' W 002°45'0 0.0
2017-Sep-18 17:55N 53°20' W 002°45'0 0.0
2017-Sep-18 17:28N 53°20' W 002°45'0 0.0
2017-Sep-18 16:58N 53°20' W 002°45'0 0.0
2017-Sep-18 16:25N 53°20' W 002°45'0 0.0
2017-Sep-18 15:58N 53°20' W 002°45'0 0.0
2017-Sep-18 15:19N 53°20' W 002°45'0 0.0
2017-Sep-18 14:58N 53°20' W 002°45'0 0.0
2017-Sep-18 14:25N 53°20' W 002°45'0 0.0
2017-Sep-18 13:58N 53°20' W 002°45'0 0.0
2017-Sep-18 13:28N 53°20' W 002°45'0 0.0
2017-Sep-18 12:58N 53°20' W 002°45'0 0.0
2017-Sep-18 12:28N 53°20' W 002°45'0 0.0
2017-Sep-18 11:58N 53°20' W 002°45'0 0.0
2017-Sep-18 11:28N 53°20' W 002°45'0 0.0
2017-Sep-18 10:58N 53°20' W 002°45'0 0.0
2017-Sep-18 10:28N 53°20' W 002°45'0 0.0
2017-Sep-18 09:55N 53°20' W 002°45'0 0.0
2017-Sep-18 09:28N 53°20' W 002°45'0 0.0
2017-Sep-18 08:58N 53°20' W 002°45'0 0.0
2017-Sep-18 08:25N 53°20' W 002°45'0 0.0
2017-Sep-18 07:55N 53°20' W 002°45'0 0.0
2017-Sep-18 07:28N 53°20' W 002°45'0 0.0
2017-Sep-18 06:52N 53°20' W 002°45'0 0.0
2017-Sep-18 06:28N 53°20' W 002°45'0 0.0
2017-Sep-18 05:58N 53°20' W 002°45'0 0.0
2017-Sep-18 05:28N 53°20' W 002°45'0 0.0
2017-Sep-18 04:55N 53°20' W 002°45'0 0.0
2017-Sep-18 04:28N 53°20' W 002°45'0 0.0
2017-Sep-18 03:55N 53°20' W 002°45'0 0.0
2017-Sep-18 03:28N 53°20' W 002°45'0 0.0
2017-Sep-18 02:55N 53°20' W 002°45'0 0.0
2017-Sep-18 02:25N 53°20' W 002°45'0 0.0
2017-Sep-18 01:58N 53°20' W 002°45'0 0.0
2017-Sep-18 01:25N 53°20' W 002°45'0 0.0
2017-Sep-18 00:58N 53°20' W 002°45'0 0.0
2017-Sep-18 00:28N 53°20' W 002°45'0 0.0
2017-Sep-17 23:55N 53°20' W 002°45'0 0.0
2017-Sep-17 23:28N 53°20' W 002°45'0 0.0
2017-Sep-17 22:58N 53°20' W 002°45'0 0.0
2017-Sep-17 22:28N 53°20' W 002°45'0 0.0
2017-Sep-17 21:52N 53°20' W 002°45'0 0.0
2017-Sep-17 21:25N 53°20' W 002°45'0 0.0
2017-Sep-17 20:58N 53°20' W 002°45'0 0.0
2017-Sep-17 20:28N 53°20' W 002°45'0 0.0
2017-Sep-17 19:58N 53°20' W 002°45'0 0.0
2017-Sep-17 19:28N 53°20' W 002°45'0 0.0
2017-Sep-17 18:58N 53°20' W 002°45'0 0.0
2017-Sep-17 18:25N 53°20' W 002°45'0 0.0
2017-Sep-17 17:55N 53°20' W 002°45'0 0.0
2017-Sep-17 17:28N 53°20' W 002°45'0 0.0
2017-Sep-17 16:58N 53°20' W 002°45'0 0.0
2017-Sep-17 16:28N 53°20' W 002°45'0 0.0
2017-Sep-17 15:58N 53°20' W 002°45'0 0.0
2017-Sep-17 15:22N 53°20' W 002°45'0 0.0
2017-Sep-17 14:58N 53°20' W 002°45'0 0.0
2017-Sep-17 14:28N 53°20' W 002°45'0 0.0
2017-Sep-17 13:58N 53°20' W 002°45'0 0.0
2017-Sep-17 13:28N 53°20' W 002°45'0 0.0
2017-Sep-17 12:55N 53°20' W 002°45'0 0.0
2017-Sep-17 12:25N 53°20' W 002°45'0 0.0
2017-Sep-17 11:58N 53°20' W 002°45'0 0.0
2017-Sep-17 11:25N 53°20' W 002°45'0 0.0
2017-Sep-17 10:58N 53°20' W 002°45'0 0.0
2017-Sep-17 10:16N 53°20' W 002°45'0 0.0
2017-Sep-17 09:52N 53°20' W 002°45'0 0.0
2017-Sep-17 09:25N 53°20' W 002°45'0 0.0
2017-Sep-17 08:58N 53°20' W 002°45'0 0.0
2017-Sep-17 08:28N 53°20' W 002°45'0 0.0
2017-Sep-17 07:58N 53°20' W 002°45'0 0.0
2017-Sep-17 07:25N 53°20' W 002°45'0 0.0
2017-Sep-17 06:58N 53°20' W 002°45'0 0.0
2017-Sep-17 06:28N 53°20' W 002°45'0 0.0
2017-Sep-17 05:58N 53°20' W 002°45'0 0.0
2017-Sep-17 05:28N 53°20' W 002°45'0 0.0
2017-Sep-17 04:58N 53°20' W 002°45'0 0.0
2017-Sep-17 04:25N 53°20' W 002°45'0 0.0
2017-Sep-17 03:58N 53°20' W 002°45'0 0.0
2017-Sep-17 03:28N 53°20' W 002°45'0 0.0
2017-Sep-17 02:55N 53°20' W 002°45'0 0.0
2017-Sep-17 02:25N 53°20' W 002°45'0 0.0
2017-Sep-17 01:55N 53°20' W 002°45'0 0.0
2017-Sep-17 01:28N 53°20' W 002°45'0 0.0
2017-Sep-17 00:52N 53°20' W 002°45'0 0.0
2017-Sep-17 00:25N 53°20' W 002°45'0 0.0
2017-Sep-16 23:55N 53°20' W 002°45'0 0.0
2017-Sep-16 23:25N 53°20' W 002°45'0 0.0
2017-Sep-16 22:58N 53°20' W 002°45'0 0.0
2017-Sep-16 22:28N 53°20' W 002°45'0 0.0
2017-Sep-16 21:52N 53°20' W 002°45'0 0.0
2017-Sep-16 21:28N 53°20' W 002°45'0 0.0
2017-Sep-16 20:58N 53°20' W 002°45'0 0.0
2017-Sep-16 20:28N 53°20' W 002°45'0 0.0
2017-Sep-16 19:58N 53°20' W 002°45'0 0.0
2017-Sep-16 19:28N 53°20' W 002°45'0 0.0
2017-Sep-16 18:58N 53°20' W 002°45'0 0.0
2017-Sep-16 18:28N 53°20' W 002°45'0 0.0
2017-Sep-16 17:58N 53°20' W 002°45'0 0.0
2017-Sep-16 17:28N 53°20' W 002°45'0 0.0
2017-Sep-16 16:58N 53°20' W 002°45'0 0.0
2017-Sep-16 16:25N 53°20' W 002°45'0 0.0
2017-Sep-16 15:55N 53°20' W 002°45'0 0.0
2017-Sep-16 15:28N 53°20' W 002°45'0 0.0
2017-Sep-16 14:55N 53°20' W 002°45'0 0.0
2017-Sep-16 14:28N 53°20' W 002°45'0 0.0
2017-Sep-16 13:58N 53°20' W 002°45'0 0.0
2017-Sep-16 13:28N 53°20' W 002°45'0 0.0
2017-Sep-16 12:58N 53°20' W 002°45'0 0.0
2017-Sep-16 12:28N 53°20' W 002°45'0 0.0
2017-Sep-16 11:58N 53°20' W 002°45'0 0.0
2017-Sep-16 11:29N 53°20' W 002°45'0 0.2
2017-Sep-16 11:00N 53°20' W 002°45'1 2.4
2017-Sep-16 10:30N 53°19' W 002°45'2 4.1
2017-Sep-16 10:00N 53°18' W 002°48'2 5.0
2017-Sep-16 09:30N 53°17' W 002°52'2 4.7
2017-Sep-16 09:00N 53°18' W 002°55'2 3.0
2017-Sep-16 08:30N 53°19' W 002°57'1 2.0
2017-Sep-16 08:00N 53°20' W 002°58'510.1
2017-Sep-16 07:30N 53°25' W 003°01'612.2
2017-Sep-16 07:00N 53°30' W 003°06'510.6
2017-Sep-16 06:30N 53°31' W 003°15'611.8
2017-Sep-16 06:00N 53°31' W 003°25'612.8
2017-Sep-16 05:30N 53°31' W 003°35'  
2017-Sep-12 07:11N 39°19' W 009°49'210.2
2017-Sep-12 07:00N 39°17' W 009°49'510.1
2017-Sep-12 06:30N 39°12' W 009°49'510.3
2017-Sep-12 06:00N 39°07' W 009°49'5 9.6
2017-Sep-12 05:30N 39°02' W 009°50'5 9.8
2017-Sep-12 05:00N 38°57' W 009°50'5 9.7
2017-Sep-12 04:30N 38°53' W 009°50'5 9.8
2017-Sep-12 04:01N 38°48' W 009°50'5 9.6
2017-Sep-12 03:30N 38°43' W 009°50'5 9.6
2017-Sep-12 03:00N 38°38' W 009°49'5 9.3
2017-Sep-12 02:30N 38°34' W 009°47'4 8.9
2017-Sep-12 02:00N 38°29' W 009°46'5 9.4
2017-Sep-12 01:30N 38°25' W 009°44'5 9.7
2017-Sep-12 01:01N 38°20' W 009°42'5 9.6
2017-Sep-12 00:29N 38°15' W 009°41'5 9.3
2017-Sep-11 23:59N 38°11' W 009°39'4 9.5
2017-Sep-11 23:31N 38°07' W 009°38'5 9.6
2017-Sep-11 22:59N 38°02' W 009°36'4 9.3
2017-Sep-11 22:30N 37°57' W 009°35'4 9.0
2017-Sep-11 22:01N 37°53' W 009°34'5 9.1
2017-Sep-11 21:30N 37°48' W 009°32'4 9.1
2017-Sep-11 21:01N 37°44' W 009°31'4 8.9
2017-Sep-11 20:30N 37°40' W 009°30'5 9.1
2017-Sep-11 20:00N 37°35' W 009°30'5 9.3
2017-Sep-11 19:30N 37°30' W 009°29'56 9.2
2017-Sep-11 13:25N 36°42' W 008°54'4711.0
2017-Sep-11 09:11N 36°32' W 007°57'211.2
2017-Sep-11 08:59N 36°31' W 007°55'611.6
2017-Sep-11 08:30N 36°29' W 007°48'612.1
2017-Sep-11 08:00N 36°27' W 007°41'612.2
2017-Sep-11 07:29N 36°25' W 007°34'612.3
2017-Sep-11 07:00N 36°23' W 007°27'9412.1
2017-Sep-10 23:13N 35°59' W 005°34'2 9.0
2017-Sep-10 23:00N 35°59' W 005°32'4 8.1
2017-Sep-10 22:30N 36°01' W 005°27'6 9.0
2017-Sep-10 21:50N 36°06' W 005°24'410.1
2017-Sep-10 21:29N 36°09' W 005°26'1 0.2
2017-Sep-10 13:54N 36°08' W 005°24'  
Track history (hours):
 
Tides and Currents Weather Stations Pressure Air Temp Water Temp Dewpoint Dewpoint Depression Visibility Wind Speed Wind Dir Waves Ship Positions

Laida

Last reported at 2017-Sep-19 23:46 UTC. Time now 2017-Sep-22 09:56 UTC.
Position N 53°33' W 003°50'.

Length 100 m; draft 5 m.

Type: Cargo ship. MMSI: 224509000.

Date/timePositionNaut miles runAvg speedWind from/ knotsBaromVisibWave heightAir tempDewpointWater temp
2017-Sep-19 23:46N 53°33' W 003°50'312.3
2017-Sep-19 23:30N 53°33' W 003°44'612.0
2017-Sep-19 23:00N 53°33' W 003°34'611.6
2017-Sep-19 22:30N 53°33' W 003°24'511.1
2017-Sep-19 22:00N 53°32' W 003°15'510.3
2017-Sep-19 21:30N 53°31' W 003°07'510.1
2017-Sep-19 21:00N 53°27' W 003°02'4 8.0
2017-Sep-19 20:30N 53°23' W 002°60'4 7.8
2017-Sep-19 20:00N 53°20' W 002°57'1 1.1
2017-Sep-19 19:30N 53°19' W 002°57'0 0.3
2017-Sep-19 19:00N 53°19' W 002°57'2 3.7
2017-Sep-19 18:30N 53°18' W 002°54'2 4.4
2017-Sep-19 18:00N 53°17' W 002°51'3 6.0
2017-Sep-19 17:30N 53°18' W 002°46'2 3.4
2017-Sep-19 16:55N 53°20' W 002°45'0 0.0
2017-Sep-19 16:28N 53°20' W 002°45'0 0.0
2017-Sep-19 15:55N 53°20' W 002°45'0 0.0
2017-Sep-19 15:28N 53°20' W 002°45'0 0.0
2017-Sep-19 14:58N 53°20' W 002°45'0 0.0
2017-Sep-19 14:28N 53°20' W 002°45'0 0.0
2017-Sep-19 13:58N 53°20' W 002°45'0 0.0
2017-Sep-19 13:28N 53°20' W 002°45'0 0.0
2017-Sep-19 12:46N 53°20' W 002°45'0 0.0
2017-Sep-19 12:22N 53°20' W 002°45'0 0.7
2017-Sep-19 11:55N 53°20' W 002°45'0 0.1
2017-Sep-19 11:25N 53°20' W 002°45'0 0.0
2017-Sep-19 10:58N 53°20' W 002°45'0 0.0
2017-Sep-19 10:25N 53°20' W 002°45'0 0.0
2017-Sep-19 09:58N 53°20' W 002°45'0 0.0
2017-Sep-19 09:28N 53°20' W 002°45'0 0.0
2017-Sep-19 08:58N 53°20' W 002°45'0 0.0
2017-Sep-19 08:22N 53°20' W 002°45'0 0.0
2017-Sep-19 07:55N 53°20' W 002°45'0 0.0
2017-Sep-19 07:28N 53°20' W 002°45'0 0.0
2017-Sep-19 06:55N 53°20' W 002°45'0 0.0
2017-Sep-19 06:28N 53°20' W 002°45'0 0.0
2017-Sep-19 05:58N 53°20' W 002°45'0 0.0
2017-Sep-19 05:28N 53°20' W 002°45'0 0.0
2017-Sep-19 04:58N 53°20' W 002°45'0 0.0
2017-Sep-19 04:25N 53°20' W 002°45'0 0.0
2017-Sep-19 03:58N 53°20' W 002°45'0 0.0
2017-Sep-19 03:25N 53°20' W 002°45'0 0.0
2017-Sep-19 02:58N 53°20' W 002°45'0 0.0
2017-Sep-19 02:28N 53°20' W 002°45'0 0.0
2017-Sep-19 01:58N 53°20' W 002°45'0 0.0
2017-Sep-19 01:22N 53°20' W 002°45'0 0.0
2017-Sep-19 00:58N 53°20' W 002°45'0 0.0
2017-Sep-19 00:28N 53°20' W 002°45'0 0.0
2017-Sep-18 23:58N 53°20' W 002°45'0 0.0
2017-Sep-18 23:25N 53°20' W 002°45'0 0.0
2017-Sep-18 22:58N 53°20' W 002°45'0 0.0
2017-Sep-18 22:25N 53°20' W 002°45'0 0.0
2017-Sep-18 21:58N 53°20' W 002°45'0 0.0
2017-Sep-18 21:28N 53°20' W 002°45'0 0.0
2017-Sep-18 20:52N 53°20' W 002°45'0 0.0
2017-Sep-18 20:28N 53°20' W 002°45'0 0.0
2017-Sep-18 19:58N 53°20' W 002°45'0 0.0
2017-Sep-18 19:28N 53°20' W 002°45'0 0.0
2017-Sep-18 18:55N 53°20' W 002°45'0 0.0
2017-Sep-18 18:28N 53°20' W 002°45'0 0.0
2017-Sep-18 17:55N 53°20' W 002°45'0 0.0
2017-Sep-18 17:28N 53°20' W 002°45'0 0.0
2017-Sep-18 16:58N 53°20' W 002°45'0 0.0
2017-Sep-18 16:25N 53°20' W 002°45'0 0.0
2017-Sep-18 15:58N 53°20' W 002°45'0 0.0
2017-Sep-18 15:19N 53°20' W 002°45'0 0.0
2017-Sep-18 14:58N 53°20' W 002°45'0 0.0
2017-Sep-18 14:25N 53°20' W 002°45'0 0.0
2017-Sep-18 13:58N 53°20' W 002°45'0 0.0
2017-Sep-18 13:28N 53°20' W 002°45'0 0.0
2017-Sep-18 12:58N 53°20' W 002°45'0 0.0
2017-Sep-18 12:28N 53°20' W 002°45'0 0.0
2017-Sep-18 11:58N 53°20' W 002°45'0 0.0
2017-Sep-18 11:28N 53°20' W 002°45'0 0.0
2017-Sep-18 10:58N 53°20' W 002°45'0 0.0
2017-Sep-18 10:28N 53°20' W 002°45'0 0.0
2017-Sep-18 09:55N 53°20' W 002°45'0 0.0
2017-Sep-18 09:28N 53°20' W 002°45'0 0.0
2017-Sep-18 08:58N 53°20' W 002°45'0 0.0
2017-Sep-18 08:25N 53°20' W 002°45'0 0.0
2017-Sep-18 07:55N 53°20' W 002°45'0 0.0
2017-Sep-18 07:28N 53°20' W 002°45'0 0.0
2017-Sep-18 06:52N 53°20' W 002°45'0 0.0
2017-Sep-18 06:28N 53°20' W 002°45'0 0.0
2017-Sep-18 05:58N 53°20' W 002°45'0 0.0
2017-Sep-18 05:28N 53°20' W 002°45'0 0.0
2017-Sep-18 04:55N 53°20' W 002°45'0 0.0
2017-Sep-18 04:28N 53°20' W 002°45'0 0.0
2017-Sep-18 03:55N 53°20' W 002°45'0 0.0
2017-Sep-18 03:28N 53°20' W 002°45'0 0.0
2017-Sep-18 02:55N 53°20' W 002°45'0 0.0
2017-Sep-18 02:25N 53°20' W 002°45'0 0.0
2017-Sep-18 01:58N 53°20' W 002°45'0 0.0
2017-Sep-18 01:25N 53°20' W 002°45'0 0.0
2017-Sep-18 00:58N 53°20' W 002°45'0 0.0
2017-Sep-18 00:28N 53°20' W 002°45'0 0.0
2017-Sep-17 23:55N 53°20' W 002°45'0 0.0
2017-Sep-17 23:28N 53°20' W 002°45'0 0.0
2017-Sep-17 22:58N 53°20' W 002°45'0 0.0
2017-Sep-17 22:28N 53°20' W 002°45'0 0.0
2017-Sep-17 21:52N 53°20' W 002°45'0 0.0
2017-Sep-17 21:25N 53°20' W 002°45'0 0.0
2017-Sep-17 20:58N 53°20' W 002°45'0 0.0
2017-Sep-17 20:28N 53°20' W 002°45'0 0.0
2017-Sep-17 19:58N 53°20' W 002°45'0 0.0
2017-Sep-17 19:28N 53°20' W 002°45'0 0.0
2017-Sep-17 18:58N 53°20' W 002°45'0 0.0
2017-Sep-17 18:25N 53°20' W 002°45'0 0.0
2017-Sep-17 17:55N 53°20' W 002°45'0 0.0
2017-Sep-17 17:28N 53°20' W 002°45'0 0.0
2017-Sep-17 16:58N 53°20' W 002°45'0 0.0
2017-Sep-17 16:28N 53°20' W 002°45'0 0.0
2017-Sep-17 15:58N 53°20' W 002°45'0 0.0
2017-Sep-17 15:22N 53°20' W 002°45'0 0.0
2017-Sep-17 14:58N 53°20' W 002°45'0 0.0
2017-Sep-17 14:28N 53°20' W 002°45'0 0.0
2017-Sep-17 13:58N 53°20' W 002°45'0 0.0
2017-Sep-17 13:28N 53°20' W 002°45'0 0.0
2017-Sep-17 12:55N 53°20' W 002°45'0 0.0
2017-Sep-17 12:25N 53°20' W 002°45'0 0.0
2017-Sep-17 11:58N 53°20' W 002°45'0 0.0
2017-Sep-17 11:25N 53°20' W 002°45'0 0.0
2017-Sep-17 10:58N 53°20' W 002°45'0 0.0
2017-Sep-17 10:16N 53°20' W 002°45'0 0.0
2017-Sep-17 09:52N 53°20' W 002°45'0 0.0
2017-Sep-17 09:25N 53°20' W 002°45'0 0.0
2017-Sep-17 08:58N 53°20' W 002°45'0 0.0
2017-Sep-17 08:28N 53°20' W 002°45'0 0.0
2017-Sep-17 07:58N 53°20' W 002°45'0 0.0
2017-Sep-17 07:25N 53°20' W 002°45'0 0.0
2017-Sep-17 06:58N 53°20' W 002°45'0 0.0
2017-Sep-17 06:28N 53°20' W 002°45'0 0.0
2017-Sep-17 05:58N 53°20' W 002°45'0 0.0
2017-Sep-17 05:28N 53°20' W 002°45'0 0.0
2017-Sep-17 04:58N 53°20' W 002°45'0 0.0
2017-Sep-17 04:25N 53°20' W 002°45'0 0.0
2017-Sep-17 03:58N 53°20' W 002°45'0 0.0
2017-Sep-17 03:28N 53°20' W 002°45'0 0.0
2017-Sep-17 02:55N 53°20' W 002°45'0 0.0
2017-Sep-17 02:25N 53°20' W 002°45'0 0.0
2017-Sep-17 01:55N 53°20' W 002°45'0 0.0
2017-Sep-17 01:28N 53°20' W 002°45'0 0.0
2017-Sep-17 00:52N 53°20' W 002°45'0 0.0
2017-Sep-17 00:25N 53°20' W 002°45'0 0.0
2017-Sep-16 23:55N 53°20' W 002°45'0 0.0
2017-Sep-16 23:25N 53°20' W 002°45'0 0.0
2017-Sep-16 22:58N 53°20' W 002°45'0 0.0
2017-Sep-16 22:28N 53°20' W 002°45'0 0.0
2017-Sep-16 21:52N 53°20' W 002°45'0 0.0
2017-Sep-16 21:28N 53°20' W 002°45'0 0.0
2017-Sep-16 20:58N 53°20' W 002°45'0 0.0
2017-Sep-16 20:28N 53°20' W 002°45'0 0.0
2017-Sep-16 19:58N 53°20' W 002°45'0 0.0
2017-Sep-16 19:28N 53°20' W 002°45'0 0.0
2017-Sep-16 18:58N 53°20' W 002°45'0 0.0
2017-Sep-16 18:28N 53°20' W 002°45'0 0.0
2017-Sep-16 17:58N 53°20' W 002°45'0 0.0
2017-Sep-16 17:28N 53°20' W 002°45'0 0.0
2017-Sep-16 16:58N 53°20' W 002°45'0 0.0
2017-Sep-16 16:25N 53°20' W 002°45'0 0.0
2017-Sep-16 15:55N 53°20' W 002°45'0 0.0
2017-Sep-16 15:28N 53°20' W 002°45'0 0.0
2017-Sep-16 14:55N 53°20' W 002°45'0 0.0
2017-Sep-16 14:28N 53°20' W 002°45'0 0.0
2017-Sep-16 13:58N 53°20' W 002°45'0 0.0
2017-Sep-16 13:28N 53°20' W 002°45'0 0.0
2017-Sep-16 12:58N 53°20' W 002°45'0 0.0
2017-Sep-16 12:28N 53°20' W 002°45'0 0.0
2017-Sep-16 11:58N 53°20' W 002°45'0 0.0
2017-Sep-16 11:29N 53°20' W 002°45'0 0.2
2017-Sep-16 11:00N 53°20' W 002°45'1 2.4
2017-Sep-16 10:30N 53°19' W 002°45'2 4.1
2017-Sep-16 10:00N 53°18' W 002°48'2 5.0
2017-Sep-16 09:30N 53°17' W 002°52'2 4.7
2017-Sep-16 09:00N 53°18' W 002°55'2 3.0
2017-Sep-16 08:30N 53°19' W 002°57'1 2.0
2017-Sep-16 08:00N 53°20' W 002°58'510.1
2017-Sep-16 07:30N 53°25' W 003°01'612.2
2017-Sep-16 07:00N 53°30' W 003°06'510.6
2017-Sep-16 06:30N 53°31' W 003°15'611.8
2017-Sep-16 06:00N 53°31' W 003°25'612.8
2017-Sep-16 05:30N 53°31' W 003°35'  
2017-Sep-12 07:11N 39°19' W 009°49'210.2
2017-Sep-12 07:00N 39°17' W 009°49'510.1
2017-Sep-12 06:30N 39°12' W 009°49'510.3
2017-Sep-12 06:00N 39°07' W 009°49'5 9.6
2017-Sep-12 05:30N 39°02' W 009°50'5 9.8
2017-Sep-12 05:00N 38°57' W 009°50'5 9.7
2017-Sep-12 04:30N 38°53' W 009°50'5 9.8
2017-Sep-12 04:01N 38°48' W 009°50'5 9.6
2017-Sep-12 03:30N 38°43' W 009°50'5 9.6
2017-Sep-12 03:00N 38°38' W 009°49'5 9.3
2017-Sep-12 02:30N 38°34' W 009°47'4 8.9
2017-Sep-12 02:00N 38°29' W 009°46'5 9.4
2017-Sep-12 01:30N 38°25' W 009°44'5 9.7
2017-Sep-12 01:01N 38°20' W 009°42'5 9.6
2017-Sep-12 00:29N 38°15' W 009°41'5 9.3
2017-Sep-11 23:59N 38°11' W 009°39'4 9.5
2017-Sep-11 23:31N 38°07' W 009°38'5 9.6
2017-Sep-11 22:59N 38°02' W 009°36'4 9.3
2017-Sep-11 22:30N 37°57' W 009°35'4 9.0
2017-Sep-11 22:01N 37°53' W 009°34'5 9.1
2017-Sep-11 21:30N 37°48' W 009°32'4 9.1
2017-Sep-11 21:01N 37°44' W 009°31'4 8.9
2017-Sep-11 20:30N 37°40' W 009°30'5 9.1
2017-Sep-11 20:00N 37°35' W 009°30'5 9.3
2017-Sep-11 19:30N 37°30' W 009°29'56 9.2
2017-Sep-11 13:25N 36°42' W 008°54'4711.0
2017-Sep-11 09:11N 36°32' W 007°57'211.2
2017-Sep-11 08:59N 36°31' W 007°55'611.6
2017-Sep-11 08:30N 36°29' W 007°48'612.1
2017-Sep-11 08:00N 36°27' W 007°41'612.2
2017-Sep-11 07:29N 36°25' W 007°34'612.3
2017-Sep-11 07:00N 36°23' W 007°27'9412.1
2017-Sep-10 23:13N 35°59' W 005°34'2 9.0
2017-Sep-10 23:00N 35°59' W 005°32'4 8.1
2017-Sep-10 22:30N 36°01' W 005°27'6 9.0
2017-Sep-10 21:50N 36°06' W 005°24'410.1
2017-Sep-10 21:29N 36°09' W 005°26'1 0.2
2017-Sep-10 13:54N 36°08' W 005°24'  

Dump ship's entire track history